Indianapolis, Indiana
Current Conditions -  °F | °C
As of 8:54 AM on Thursday 23 Oct 2014 (Local Time) from KIND Reporting Station
Light Fog Light Fog  
Wind Chill: 38°   Ceiling: Unl
Heat Index: 38°   Visibility: 3mi
Dew Point: 37°   Wind: 0mph
Humidity: 97%   Direction: NA
Pressure: 30.25"   Gusts: NA
Location:  39.77°N, 86.15°W
Report Text: KIND 231254Z 00000KT 3SM BR MIFG SCT250 03/03 A3025 RMK AO2 SLP245 VIS E 1 1/2 T00330028
Loading
Personal Weather Stations






























Interactive Weather Map
Tropical Storm Tracking
New forecast layout! Learn more

10-Day Weather Forecast

Advertisements
Track Severe Weather on mobile